createdAt,value
2018-12-13T00:01:47.393Z,4.00
2018-12-13T00:04:24.871Z,4.00
2018-12-13T00:06:55.849Z,4.00
2018-12-13T00:09:33.003Z,4.10
2018-12-13T00:12:09.921Z,4.10
2018-12-13T00:14:50.808Z,4.00
2018-12-13T00:24:01.191Z,4.10
2018-12-13T00:26:54.515Z,4.00
2018-12-13T00:29:39.696Z,4.00
2018-12-13T00:33:57.038Z,4.00
2018-12-13T00:36:32.823Z,3.90
2018-12-13T00:39:09.388Z,4.00
2018-12-13T00:41:44.881Z,4.00
2018-12-13T00:44:24.545Z,4.00
2018-12-13T00:47:04.068Z,3.90
2018-12-13T00:49:41.982Z,4.00
2018-12-13T00:52:27.745Z,4.00
2018-12-13T00:58:57.342Z,3.90
2018-12-13T01:08:16.323Z,3.80
2018-12-13T01:13:33.134Z,3.70
2018-12-13T01:16:13.999Z,3.80
2018-12-13T01:24:23.319Z,3.70
2018-12-13T01:29:33.131Z,3.60
2018-12-13T01:32:12.730Z,3.70
2018-12-13T01:34:44.889Z,3.60
2018-12-13T01:39:58.123Z,3.50
2018-12-13T01:42:34.899Z,3.50
2018-12-13T01:45:08.042Z,3.50
2018-12-13T01:47:42.424Z,3.50
2018-12-13T01:50:13.817Z,3.50
2018-12-13T01:52:46.716Z,3.40
2018-12-13T01:55:17.361Z,3.40
2018-12-13T01:57:50.392Z,3.40
2018-12-13T02:00:21.124Z,3.30
2018-12-13T02:02:52.033Z,3.40
2018-12-13T02:05:23.874Z,3.40
2018-12-13T02:07:54.200Z,3.40
2018-12-13T02:10:25.012Z,3.40
2018-12-13T02:12:58.373Z,3.40
2018-12-13T02:15:29.378Z,3.40
2018-12-13T02:18:00.263Z,3.40
2018-12-13T02:20:34.419Z,3.40
2018-12-13T02:23:06.830Z,3.50
2018-12-13T02:25:37.472Z,3.40
2018-12-13T02:28:08.522Z,3.30
2018-12-13T02:30:39.995Z,3.30
2018-12-13T02:33:12.070Z,3.40
2018-12-13T02:35:45.548Z,3.40
2018-12-13T02:38:18.229Z,3.40
2018-12-13T02:40:48.968Z,3.50
2018-12-13T02:43:20.823Z,3.40
2018-12-13T02:45:59.071Z,3.40
2018-12-13T02:48:30.546Z,3.40
2018-12-13T02:51:02.321Z,3.40
2018-12-13T02:53:33.163Z,3.40
2018-12-13T02:56:03.283Z,3.40
2018-12-13T02:58:33.586Z,3.50
2018-12-13T03:01:04.267Z,3.50
2018-12-13T03:03:37.140Z,3.40
2018-12-13T03:06:08.368Z,3.40
2018-12-13T03:08:39.946Z,3.40
2018-12-13T03:11:12.359Z,3.40
2018-12-13T03:13:44.838Z,3.40
2018-12-13T03:16:22.090Z,3.50
2018-12-13T03:18:53.208Z,3.50
2018-12-13T03:21:24.106Z,3.50
2018-12-13T03:23:55.902Z,3.50
2018-12-13T03:26:28.484Z,3.40
2018-12-13T03:29:00.104Z,3.40
2018-12-13T03:31:32.244Z,3.40
2018-12-13T03:34:08.167Z,3.50
2018-12-13T03:37:27.048Z,3.50
2018-12-13T03:40:12.284Z,3.60
2018-12-13T03:55:21.032Z,3.50
2018-12-13T03:57:53.319Z,3.50
2018-12-13T04:00:28.512Z,3.60
2018-12-13T04:03:00.832Z,3.60
2018-12-13T04:05:33.944Z,3.60
2018-12-13T04:08:04.434Z,3.50
2018-12-13T04:10:39.938Z,3.50
2018-12-13T04:13:11.264Z,3.40
2018-12-13T04:15:43.018Z,3.40
2018-12-13T04:18:17.372Z,3.40
2018-12-13T04:20:48.438Z,3.40
2018-12-13T04:23:19.651Z,3.40
2018-12-13T04:25:53.730Z,3.40
2018-12-13T04:28:31.310Z,3.40
2018-12-13T04:37:40.152Z,3.40
2018-12-13T04:43:27.333Z,3.30
2018-12-13T04:48:53.277Z,3.30
2018-12-13T04:51:26.817Z,3.30
2018-12-13T04:54:06.768Z,3.30
2018-12-13T04:56:44.891Z,3.30
2018-12-13T04:59:22.060Z,3.30
2018-12-13T05:01:55.098Z,3.30
2018-12-13T05:04:27.084Z,3.30
2018-12-13T05:07:17.921Z,3.40
2018-12-13T05:09:50.730Z,3.30
2018-12-13T05:12:20.378Z,3.30
2018-12-13T05:14:51.515Z,3.30
2018-12-13T05:17:21.900Z,3.40
2018-12-13T05:19:52.043Z,3.40
2018-12-13T05:22:22.167Z,3.30
2018-12-13T05:24:52.445Z,3.30
2018-12-13T05:39:48.297Z,3.40
2018-12-13T05:42:19.874Z,3.40
2018-12-13T05:44:52.244Z,3.40
2018-12-13T05:47:24.403Z,3.40
2018-12-13T05:49:58.805Z,3.40
2018-12-13T05:52:37.139Z,3.40
2018-12-13T05:55:14.373Z,3.40
2018-12-13T05:57:49.816Z,3.40
2018-12-13T06:03:20.216Z,3.40
2018-12-13T06:06:10.265Z,3.40
2018-12-13T06:08:54.742Z,3.40
2018-12-13T06:20:47.187Z,3.50
2018-12-13T06:23:19.955Z,3.50
2018-12-13T06:31:35.415Z,3.50
2018-12-13T06:34:12.975Z,3.50
2018-12-13T06:36:45.801Z,3.50
2018-12-13T06:39:20.092Z,3.50
2018-12-13T06:41:52.410Z,3.60
2018-12-13T06:44:29.422Z,3.60
2018-12-13T06:47:03.873Z,3.60
2018-12-13T06:49:34.960Z,3.60
2018-12-13T06:52:06.256Z,3.60
2018-12-13T06:54:38.552Z,3.60
2018-12-13T07:41:03.831Z,3.90
2018-12-13T07:43:45.196Z,4.00
2018-12-13T07:46:26.681Z,4.00
2018-12-13T07:49:13.660Z,4.00
2018-12-13T07:57:34.531Z,4.10
2018-12-13T08:00:12.616Z,4.10
2018-12-13T08:02:44.505Z,4.10
2018-12-13T08:05:20.823Z,4.10
2018-12-13T08:07:59.906Z,4.10
2018-12-13T08:13:20.493Z,4.00
2018-12-13T08:16:25.724Z,4.00
2018-12-13T08:24:40.566Z,4.00
2018-12-13T08:30:06.354Z,3.90
2018-12-13T08:38:14.142Z,3.90
2018-12-13T08:40:56.627Z,4.00
2018-12-13T08:43:37.766Z,3.90
2018-12-13T08:46:16.291Z,4.00
2018-12-13T08:48:52.563Z,4.00
2018-12-13T08:51:26.648Z,4.00
2018-12-13T08:53:59.207Z,4.10
2018-12-13T08:56:40.106Z,4.10
2018-12-13T08:59:16.775Z,4.10
2018-12-13T09:12:04.880Z,4.10
2018-12-13T09:17:28.578Z,4.10
2018-12-13T09:20:05.127Z,4.10
2018-12-13T09:22:49.733Z,4.10
2018-12-13T09:25:28.721Z,4.10
2018-12-13T09:28:10.481Z,4.10
2018-12-13T09:36:15.885Z,4.10
2018-12-13T09:38:53.726Z,4.20
2018-12-13T09:41:46.424Z,4.20
2018-12-13T09:44:26.254Z,4.20
2018-12-13T09:49:48.551Z,4.20
2018-12-13T09:52:36.572Z,4.20
2018-12-13T09:58:11.445Z,4.10
2018-12-13T10:00:46.134Z,4.20
2018-12-13T10:03:20.509Z,4.20
2018-12-13T10:05:51.527Z,4.30
2018-12-13T10:08:24.560Z,4.30
2018-12-13T10:10:57.262Z,4.40
2018-12-13T10:13:32.104Z,4.40
2018-12-13T10:16:04.180Z,4.40
2018-12-13T10:18:35.356Z,4.40
2018-12-13T10:21:06.063Z,4.40
2018-12-13T10:23:37.541Z,4.40
2018-12-13T10:26:09.385Z,4.40
2018-12-13T10:28:39.594Z,4.40
2018-12-13T10:31:12.512Z,4.40
2018-12-13T10:33:44.149Z,4.40
2018-12-13T10:36:15.903Z,4.50
2018-12-13T10:38:52.983Z,4.40
2018-12-13T10:41:19.504Z,4.50
2018-12-13T10:43:51.935Z,4.50
2018-12-13T10:46:23.337Z,4.50
2018-12-13T10:48:54.834Z,4.60
2018-12-13T10:51:27.475Z,4.60
2018-12-13T10:53:57.964Z,4.60
2018-12-13T10:56:28.689Z,4.60
2018-12-13T10:58:59.531Z,4.60
2018-12-13T11:01:34.717Z,4.60
2018-12-13T11:04:06.880Z,4.70
2018-12-13T11:06:38.686Z,4.70
2018-12-13T11:09:10.185Z,4.70
2018-12-13T11:11:42.402Z,4.90
2018-12-13T11:14:18.996Z,4.80
2018-12-13T11:16:49.171Z,4.80
2018-12-13T11:19:21.978Z,4.90
2018-12-13T11:21:56.738Z,4.90
2018-12-13T11:24:28.143Z,4.90
2018-12-13T11:29:07.047Z,5.00
2018-12-13T11:31:37.302Z,5.00
2018-12-13T11:34:08.453Z,5.20
2018-12-13T11:36:42.179Z,5.30
2018-12-13T11:39:12.494Z,5.30
2018-12-13T11:41:45.608Z,5.30
2018-12-13T11:44:20.303Z,5.40
2018-12-13T11:46:51.475Z,5.30
2018-12-13T11:49:22.968Z,5.30
2018-12-13T11:51:54.270Z,5.30
2018-12-13T11:57:34.211Z,5.30
2018-12-13T12:00:05.540Z,5.30
2018-12-13T12:02:42.609Z,5.30
2018-12-13T12:05:15.328Z,5.40
2018-12-13T12:07:46.333Z,5.40
2018-12-13T12:12:55.896Z,5.40
2018-12-13T12:15:26.973Z,5.50
2018-12-13T12:17:58.740Z,5.50
2018-12-13T12:20:33.145Z,5.50
2018-12-13T12:23:05.625Z,5.50
2018-12-13T12:25:36.062Z,5.50
2018-12-13T12:28:06.931Z,5.60
2018-12-13T12:30:36.908Z,5.70
2018-12-13T12:33:06.973Z,5.70
2018-12-13T12:35:37.660Z,5.70
2018-12-13T12:38:14.303Z,5.60
2018-12-13T12:40:45.828Z,5.70
2018-12-13T12:43:16.178Z,5.80
2018-12-13T12:45:47.477Z,5.90
2018-12-13T12:48:19.726Z,5.90
2018-12-13T12:50:51.114Z,5.90
2018-12-13T12:53:26.503Z,6.10
2018-12-13T12:56:01.052Z,6.20
2018-12-13T12:58:31.386Z,6.50
2018-12-13T13:01:04.392Z,6.80
2018-12-13T13:03:38.460Z,7.00
2018-12-13T13:06:10.878Z,7.30
2018-12-13T13:11:40.065Z,7.90
2018-12-13T13:14:18.756Z,8.10
2018-12-13T13:16:55.581Z,8.10
2018-12-13T13:19:26.886Z,8.30
2018-12-13T13:22:00.501Z,8.30
2018-12-13T13:24:34.415Z,8.30
2018-12-13T13:27:16.254Z,8.50
2018-12-13T13:29:53.234Z,8.30
2018-12-13T13:35:17.947Z,7.60
2018-12-13T13:37:51.731Z,7.40
2018-12-13T13:40:33.276Z,7.40
2018-12-13T13:43:14.831Z,7.40
2018-12-13T13:45:48.235Z,7.60
2018-12-13T13:48:26.753Z,7.50
2018-12-13T13:51:02.362Z,7.40
2018-12-13T13:53:39.849Z,7.20
2018-12-13T13:56:17.105Z,7.00
2018-12-13T14:01:37.302Z,6.90
2018-12-13T14:04:14.482Z,7.20
2018-12-13T14:06:49.689Z,6.70
2018-12-13T14:09:21.118Z,6.70
2018-12-13T14:14:55.526Z,6.80
2018-12-13T14:17:32.415Z,6.80
2018-12-13T14:22:56.787Z,7.20
2018-12-13T14:25:31.701Z,7.00
2018-12-13T14:28:23.911Z,7.00
2018-12-13T14:31:05.260Z,6.80
2018-12-13T14:42:09.122Z,7.10
2018-12-13T16:04:11.583Z,3.90
2018-12-13T16:06:54.100Z,3.80
2018-12-13T16:09:33.127Z,3.80
2018-12-13T18:33:28.045Z,2.20
2018-12-13T18:41:54.398Z,2.10
2018-12-13T18:50:09.307Z,2.00
2018-12-13T18:52:41.355Z,2.00
2018-12-13T18:55:21.449Z,2.00
2018-12-13T18:57:55.273Z,1.90
2018-12-13T19:00:36.437Z,1.90
2018-12-13T19:15:17.372Z,1.80
2018-12-13T20:28:56.637Z,1.70
2018-12-13T22:25:58.069Z,0.70
2018-12-13T22:28:33.226Z,0.60
